Language: 


Des rapports , des résumés tant et plus, au choix de chacun....


Données Historiques de Météogheer
Journalier Rapport pour Janvier 30, 2018 Unitée:  Les deux    Impériale   Métrique
Suivant Jour »
Journalier Hebdomadaire Mensuel Annuel Sur mesure
  Max: Min: Moyenne:
Température: 52.3 °F /  11.3 °C 32.2 °F /  0.1 °C 42.3 °F /  5.7 °C
Point de rosée: 50 °F /  10.0 °C 32 °F /  0.0 °C 41.2 °F /  5.1 °C
Humidité: 98% 78% 94%
Vent: 7.8mph /  12.6km/h - 0.9mph /  1.5km/h
Rafales: 9.4mph /  15.1km/h - -
Vent- - SSW
Pression: 30.4 in /  1030.0 hPa 30.1 in /  1018.2 hPa -
Pluie: 0.01 in /  0.3 mm    
Historical Graphs
 
 
Données tabulaires pour Janvier 30, 2018
Heure Température Point de rosée Pression Vent Vent Rafales Humidité Pluie Taux (Horaire) Conditions
00:03 39.7 °F /  4.3 °C 39.2 °F /  4.0 °C 30.4in /  1030.0hPa Calm   1.3mph /  2.1km/h 97% 0in /  0.0mm
00:08 40.3 °F /  4.6 °C 41 °F /  5.0 °C 30.4in /  1030.0hPa Calm   3.4mph /  5.5km/h 98% 0in /  0.0mm
00:13 40.6 °F /  4.8 °C 41 °F /  5.0 °C 30.4in /  1030.0hPa Calm   3.4mph /  5.5km/h 98% 0in /  0.0mm
00:18 40.6 °F /  4.8 °C 41 °F /  5.0 °C 30.4in /  1030.0hPa Calm   2.2mph /  3.5km/h 98% 0in /  0.0mm
00:23 40.6 °F /  4.8 °C 41 °F /  5.0 °C 30.4in /  1030.0hPa Calm   1.6mph /  2.6km/h 98% 0in /  0.0mm
00:28 40.3 °F /  4.6 °C 41 °F /  5.0 °C 30.4in /  1030.0hPa Calm   1.1mph /  1.8km/h 98% 0in /  0.0mm
00:33 40.3 °F /  4.6 °C 41 °F /  5.0 °C 30.4in /  1030.0hPa Calm     98% 0in /  0.0mm
00:38 40.3 °F /  4.6 °C 41 °F /  5.0 °C 30.4in /  1030.0hPa Calm     98% 0in /  0.0mm
00:43 39.9 °F /  4.4 °C 39.2 °F /  4.0 °C 30.4in /  1030.0hPa Calm     98% 0in /  0.0mm
00:48 39.4 °F /  4.1 °C 39.2 °F /  4.0 °C 30.4in /  1030.0hPa Calm     98% 0in /  0.0mm
00:53 39.2 °F /  4.0 °C 39.2 °F /  4.0 °C 30.4in /  1030.0hPa Calm     98% 0in /  0.0mm
00:58 39.2 °F /  4.0 °C 39.2 °F /  4.0 °C 30.4in /  1030.0hPa Calm     98% 0in /  0.0mm
01:03 39.2 °F /  4.0 °C 39.2 °F /  4.0 °C 30.4in /  1030.0hPa Calm     98% 0in /  0.0mm
01:08 39.2 °F /  4.0 °C 39.2 °F /  4.0 °C 30.4in /  1030.0hPa Calm   2.2mph /  3.5km/h 98% 0in /  0.0mm
01:13 39.2 °F /  4.0 °C 39.2 °F /  4.0 °C 30.4in /  1030.0hPa Calm   2.7mph /  4.3km/h 98% 0in /  0.0mm
01:18 39.2 °F /  4.0 °C 39.2 °F /  4.0 °C 30.4in /  1030.0hPa Calm   2.7mph /  4.3km/h 98% 0in /  0.0mm
01:23 39.2 °F /  4.0 °C 39.2 °F /  4.0 °C 30.4in /  1030.0hPa WNW 1.3mph /  2.1km/h 1.3mph /  2.1km/h 98% 0in /  0.0mm
01:28 39.4 °F /  4.1 °C 39.2 °F /  4.0 °C 30.4in /  1030.0hPa Calm   2.9mph /  4.7km/h 98% 0in /  0.0mm
01:33 39.2 °F /  4.0 °C 39.2 °F /  4.0 °C 30.4in /  1030.0hPa Calm   2.9mph /  4.7km/h 98% 0in /  0.0mm
01:38 38.8 °F /  3.8 °C 39.2 °F /  4.0 °C 30.4in /  1030.0hPa Calm   1.1mph /  1.8km/h 98% 0in /  0.0mm
01:43 38.5 °F /  3.6 °C 39.2 °F /  4.0 °C 30.4in /  1030.0hPa Calm   0.9mph /  1.4km/h 98% 0in /  0.0mm
01:48 37.9 °F /  3.3 °C 37.4 °F /  3.0 °C 30.4in /  1030.0hPa Calm     98% 0in /  0.0mm
01:53 37.9 °F /  3.3 °C 37.4 °F /  3.0 °C 30.4in /  1030.0hPa Calm   3.8mph /  6.1km/h 98% 0in /  0.0mm
01:58 37.9 °F /  3.3 °C 37.4 °F /  3.0 °C 30.4in /  1030.0hPa Calm   3.8mph /  6.1km/h 98% 0in /  0.0mm
02:03 37.9 °F /  3.3 °C 37.4 °F /  3.0 °C 30.4in /  1030.0hPa Calm   3.8mph /  6.1km/h 98% 0in /  0.0mm
02:08 37.9 °F /  3.3 °C 37.4 °F /  3.0 °C 30.4in /  1030.0hPa Calm   2.9mph /  4.7km/h 98% 0in /  0.0mm
02:13 37.8 °F /  3.2 °C 37.4 °F /  3.0 °C 30.4in /  1030.0hPa Calm   0.9mph /  1.4km/h 98% 0in /  0.0mm
02:19 37.9 °F /  3.3 °C 37.4 °F /  3.0 °C 30.4in /  1030.0hPa Calm   2.7mph /  4.3km/h 98% 0in /  0.0mm
02:24 38.1 °F /  3.4 °C 37.4 °F /  3.0 °C 30.4in /  1030.0hPa Calm   3.1mph /  5.0km/h 98% 0in /  0.0mm
02:29 37.9 °F /  3.3 °C 37.4 °F /  3.0 °C 30.4in /  1030.0hPa Calm   3.6mph /  5.8km/h 98% 0in /  0.0mm
02:34 37.9 °F /  3.3 °C 37.4 °F /  3.0 °C 30.4in /  1030.0hPa Calm   3.6mph /  5.8km/h 98% 0in /  0.0mm
02:39 37.6 °F /  3.1 °C 37.4 °F /  3.0 °C 30.4in /  1030.0hPa Calm   2mph /  3.2km/h 98% 0in /  0.0mm
02:44 37 °F /  2.8 °C 37.4 °F /  3.0 °C 30.4in /  1030.0hPa Calm     98% 0in /  0.0mm
02:49 36.9 °F /  2.7 °C 37.4 °F /  3.0 °C 30.4in /  1030.0hPa Calm     98% 0in /  0.0mm
02:54 36.7 °F /  2.6 °C 37.4 °F /  3.0 °C 30.4in /  1030.0hPa Calm     98% 0in /  0.0mm
02:59 36.7 °F /  2.6 °C 37.4 °F /  3.0 °C 30.4in /  1030.0hPa Calm     98% 0in /  0.0mm
03:04 37 °F /  2.8 °C 37.4 °F /  3.0 °C 30.4in /  1030.0hPa Calm   3.1mph /  5.0km/h 98% 0in /  0.0mm
03:09 36.9 °F /  2.7 °C 37.4 °F /  3.0 °C 30.4in /  1030.0hPa West 2.2mph /  3.5km/h 4.3mph /  6.9km/h 98% 0in /  0.0mm
03:14 36.7 °F /  2.6 °C 37.4 °F /  3.0 °C 30.4in /  1030.0hPa NW 2mph /  3.2km/h 4.3mph /  6.9km/h 98% 0in /  0.0mm
03:15 36.7 °F /  2.6 °C 37.4 °F /  3.0 °C 30.4in /  1030.0hPa WNW 3.1mph /  5.0km/h 4.3mph /  6.9km/h 98% 0in /  0.0mm
03:20 36.7 °F /  2.6 °C 37.4 °F /  3.0 °C 30.4in /  1030.0hPa Calm   3.4mph /  5.5km/h 98% 0in /  0.0mm
03:25 36.9 °F /  2.7 °C 37.4 °F /  3.0 °C 30.4in /  1030.0hPa Calm   2.7mph /  4.3km/h 98% 0in /  0.0mm
03:30 37 °F /  2.8 °C 37.4 °F /  3.0 °C 30.4in /  1030.0hPa Calm     98% 0in /  0.0mm
03:35 36.3 °F /  2.4 °C 37.4 °F /  3.0 °C 30.4in /  1030.0hPa Calm     98% 0in /  0.0mm
03:40 36.1 °F /  2.3 °C 37.4 °F /  3.0 °C 30.4in /  1030.0hPa Calm     98% 0in /  0.0mm
03:45 35.6 °F /  2.0 °C 35.6 °F /  2.0 °C 30.4in /  1030.0hPa Calm     98% 0in /  0.0mm
03:50 35.2 °F /  1.8 °C 35.6 °F /  2.0 °C 30.4in /  1030.0hPa Calm     98% 0in /  0.0mm
03:55 35.1 °F /  1.7 °C 35.6 °F /  2.0 °C 30.4in /  1030.0hPa Calm     98% 0in /  0.0mm
04:01 34.7 °F /  1.5 °C 35.6 °F /  2.0 °C 30.4in /  1029.0hPa Calm   2.2mph /  3.5km/h 98% 0in /  0.0mm
04:06 34.5 °F /  1.4 °C 33.8 °F /  1.0 °C 30.4in /  1029.0hPa Calm   2.2mph /  3.5km/h 98% 0in /  0.0mm
04:11 34.3 °F /  1.3 °C 33.8 °F /  1.0 °C 30.4in /  1029.0hPa Calm     98% 0in /  0.0mm
04:16 34.3 °F /  1.3 °C 33.8 °F /  1.0 °C 30.4in /  1029.0hPa Calm     98% 0in /  0.0mm
04:21 34.3 °F /  1.3 °C 33.8 °F /  1.0 °C 30.4in /  1029.0hPa Calm     98% 0in /  0.0mm
04:26 34.5 °F /  1.4 °C 33.8 °F /  1.0 °C 30.4in /  1029.0hPa Calm     98% 0in /  0.0mm
04:31 34.5 °F /  1.4 °C 33.8 °F /  1.0 °C 30.4in /  1029.0hPa Calm     98% 0in /  0.0mm
04:36 34.3 °F /  1.3 °C 33.8 °F /  1.0 °C 30.4in /  1029.0hPa Calm     98% 0in /  0.0mm
04:41 34 °F /  1.1 °C 33.8 °F /  1.0 °C 30.4in /  1029.0hPa Calm     98% 0in /  0.0mm
04:46 33.8 °F /  1.0 °C 33.8 °F /  1.0 °C 30.4in /  1030.0hPa Calm     98% 0in /  0.0mm
04:51 33.8 °F /  1.0 °C 33.8 °F /  1.0 °C 30.4in /  1030.0hPa Calm     98% 0in /  0.0mm
04:56 34 °F /  1.1 °C 33.8 °F /  1.0 °C 30.4in /  1030.0hPa Calm   2.7mph /  4.3km/h 98% 0in /  0.0mm
05:01 34.9 °F /  1.6 °C 35.6 °F /  2.0 °C 30.4in /  1029.0hPa Calm   2.7mph /  4.3km/h 98% 0in /  0.0mm
05:06 34.9 °F /  1.6 °C 35.6 °F /  2.0 °C 30.4in /  1029.0hPa Calm     98% 0in /  0.0mm
05:11 34.9 °F /  1.6 °C 35.6 °F /  2.0 °C 30.4in /  1029.0hPa Calm     98% 0in /  0.0mm
05:16 34.5 °F /  1.4 °C 33.8 °F /  1.0 °C 30.4in /  1029.0hPa Calm     98% 0in /  0.0mm
05:21 34.2 °F /  1.2 °C 33.8 °F /  1.0 °C 30.4in /  1029.0hPa Calm     98% 0in /  0.0mm
05:26 34 °F /  1.1 °C 33.8 °F /  1.0 °C 30.4in /  1029.0hPa Calm     98% 0in /  0.0mm
05:31 34.2 °F /  1.2 °C 33.8 °F /  1.0 °C 30.4in /  1029.0hPa Calm     98% 0in /  0.0mm
05:36 34.2 °F /  1.2 °C 33.8 °F /  1.0 °C 30.4in /  1029.0hPa Calm     98% 0in /  0.0mm
05:41 33.8 °F /  1.0 °C 33.8 °F /  1.0 °C 30.4in /  1029.0hPa Calm     98% 0in /  0.0mm
05:46 33.6 °F /  0.9 °C 33.8 °F /  1.0 °C 30.4in /  1029.0hPa Calm     98% 0in /  0.0mm
05:51 34 °F /  1.1 °C 33.8 °F /  1.0 °C 30.4in /  1029.0hPa Calm   2.9mph /  4.7km/h 98% 0in /  0.0mm
05:56 33.8 °F /  1.0 °C 33.8 °F /  1.0 °C 30.4in /  1029.0hPa Calm   2.9mph /  4.7km/h 98% 0in /  0.0mm
06:01 33.8 °F /  1.0 °C 33.8 °F /  1.0 °C 30.4in /  1029.0hPa Calm     98% 0in /  0.0mm
06:06 34 °F /  1.1 °C 33.8 °F /  1.0 °C 30.4in /  1029.0hPa WNW 1.1mph /  1.8km/h 2.5mph /  4.0km/h 98% 0in /  0.0mm
06:11 34.3 °F /  1.3 °C 33.8 °F /  1.0 °C 30.4in /  1029.0hPa Calm   2.5mph /  4.0km/h 98% 0in /  0.0mm
06:16 34.5 °F /  1.4 °C 33.8 °F /  1.0 °C 30.4in /  1029.0hPa Calm   2.2mph /  3.5km/h 98% 0in /  0.0mm
06:21 34.5 °F /  1.4 °C 33.8 °F /  1.0 °C 30.4in /  1029.0hPa Calm   2.7mph /  4.3km/h 98% 0in /  0.0mm
06:27 34.7 °F /  1.5 °C 35.6 °F /  2.0 °C 30.4in /  1029.0hPa Calm   2.7mph /  4.3km/h 98% 0in /  0.0mm
06:32 34.7 °F /  1.5 °C 35.6 °F /  2.0 °C 30.4in /  1030.0hPa Calm   3.1mph /  5.0km/h 98% 0in /  0.0mm
06:37 34.3 °F /  1.3 °C 33.8 °F /  1.0 °C 30.4in /  1030.0hPa Calm   3.1mph /  5.0km/h 98% 0in /  0.0mm
06:42 33.8 °F /  1.0 °C 33.8 °F /  1.0 °C 30.4in /  1030.0hPa Calm     98% 0in /  0.0mm
06:47 33.6 °F /  0.9 °C 33.8 °F /  1.0 °C 30.4in /  1029.0hPa Calm     98% 0in /  0.0mm
06:52 33.3 °F /  0.7 °C 33.8 °F /  1.0 °C 30.4in /  1029.0hPa Calm     98% 0in /  0.0mm
06:57 32.9 °F /  0.5 °C 33.8 °F /  1.0 °C 30.4in /  1029.0hPa Calm     98% 0in /  0.0mm
07:02 32.7 °F /  0.4 °C 33.8 °F /  1.0 °C 30.4in /  1029.0hPa Calm     98% 0in /  0.0mm
07:07 32.7 °F /  0.4 °C 33.8 °F /  1.0 °C 30.4in /  1029.0hPa Calm     98% 0in /  0.0mm
07:12 33.1 °F /  0.6 °C 33.8 °F /  1.0 °C 30.4in /  1029.0hPa West 2.7mph /  4.3km/h 3.1mph /  5.0km/h 98% 0in /  0.0mm
07:17 33.3 °F /  0.7 °C 33.8 °F /  1.0 °C 30.4in /  1029.0hPa Calm   3.1mph /  5.0km/h 98% 0in /  0.0mm
07:22 33.1 °F /  0.6 °C 33.8 °F /  1.0 °C 30.4in /  1029.0hPa Calm   2.7mph /  4.3km/h 98% 0in /  0.0mm
07:27 32.7 °F /  0.4 °C 33.8 °F /  1.0 °C 30.4in /  1029.0hPa Calm     98% 0in /  0.0mm
07:32 32.7 °F /  0.4 °C 33.8 °F /  1.0 °C 30.4in /  1029.0hPa Calm     98% 0in /  0.0mm
07:37 32.5 °F /  0.3 °C 33.8 °F /  1.0 °C 30.4in /  1029.0hPa Calm     98% 0in /  0.0mm
07:42 32.4 °F /  0.2 °C 32 °F /  0.0 °C 30.4in /  1029.0hPa Calm     98% 0in /  0.0mm
07:47 32.2 °F /  0.1 °C 32 °F /  0.0 °C 30.4in /  1029.0hPa Calm     98% 0in /  0.0mm
07:52 32.2 °F /  0.1 °C 32 °F /  0.0 °C 30.4in /  1029.0hPa Calm     98% 0in /  0.0mm
07:57 32.2 °F /  0.1 °C 32 °F /  0.0 °C 30.4in /  1029.0hPa Calm     98% 0in /  0.0mm
08:02 32.2 °F /  0.1 °C 32 °F /  0.0 °C 30.4in /  1030.0hPa Calm   3.4mph /  5.5km/h 98% 0in /  0.0mm
08:07 32.4 °F /  0.2 °C 32 °F /  0.0 °C 30.4in /  1030.0hPa Calm   3.4mph /  5.5km/h 98% 0in /  0.0mm
08:12 32.2 °F /  0.1 °C 32 °F /  0.0 °C 30.4in /  1030.0hPa Calm   0.9mph /  1.4km/h 98% 0in /  0.0mm
08:17 32.2 °F /  0.1 °C 32 °F /  0.0 °C 30.4in /  1029.0hPa Calm     98% 0in /  0.0mm
08:22 32.4 °F /  0.2 °C 32 °F /  0.0 °C 30.4in /  1029.0hPa Calm     98% 0in /  0.0mm
08:27 32.4 °F /  0.2 °C 32 °F /  0.0 °C 30.4in /  1029.0hPa Calm     98% 0in /  0.0mm
08:32 32.7 °F /  0.4 °C 33.8 °F /  1.0 °C 30.4in /  1029.0hPa Calm     98% 0in /  0.0mm
08:37 32.7 °F /  0.4 °C 33.8 °F /  1.0 °C 30.4in /  1029.0hPa Calm     98% 0in /  0.0mm
08:42 32.7 °F /  0.4 °C 33.8 °F /  1.0 °C 30.4in /  1029.0hPa Calm   2mph /  3.2km/h 98% 0in /  0.0mm
08:47 32.9 °F /  0.5 °C 33.8 °F /  1.0 °C 30.4in /  1030.0hPa Calm   2mph /  3.2km/h 98% 0in /  0.0mm
08:52 33.1 °F /  0.6 °C 33.8 °F /  1.0 °C 30.4in /  1030.0hPa Calm   2mph /  3.2km/h 98% 0in /  0.0mm
08:57 33.4 °F /  0.8 °C 33.8 °F /  1.0 °C 30.4in /  1030.0hPa Calm   2mph /  3.2km/h 98% 0in /  0.0mm
09:03 33.6 °F /  0.9 °C 33.8 °F /  1.0 °C 30.4in /  1030.0hPa Calm     98% 0in /  0.0mm
09:08 33.6 °F /  0.9 °C 33.8 °F /  1.0 °C 30.4in /  1030.0hPa Calm     98% 0in /  0.0mm
09:13 33.6 °F /  0.9 °C 33.8 °F /  1.0 °C 30.4in /  1030.0hPa Calm   0.9mph /  1.4km/h 98% 0in /  0.0mm
09:18 34 °F /  1.1 °C 33.8 °F /  1.0 °C 30.4in /  1030.0hPa Calm   2.2mph /  3.5km/h 98% 0in /  0.0mm
09:23 34.2 °F /  1.2 °C 33.8 °F /  1.0 °C 30.4in /  1030.0hPa Calm   2.2mph /  3.5km/h 98% 0in /  0.0mm
09:28 34.2 °F /  1.2 °C 33.8 °F /  1.0 °C 30.4in /  1030.0hPa Calm     98% 0in /  0.0mm
09:33 34.3 °F /  1.3 °C 33.8 °F /  1.0 °C 30.4in /  1029.0hPa Calm     98% 0in /  0.0mm
09:38 34.5 °F /  1.4 °C 33.8 °F /  1.0 °C 30.4in /  1029.0hPa Calm   0.9mph /  1.4km/h 98% 0in /  0.0mm
09:43 34.9 °F /  1.6 °C 35.6 °F /  2.0 °C 30.4in /  1029.0hPa Calm   0.9mph /  1.4km/h 98% 0in /  0.0mm
09:48 35.2 °F /  1.8 °C 35.6 °F /  2.0 °C 30.4in /  1030.0hPa Calm   0.9mph /  1.4km/h 98% 0in /  0.0mm
09:53 35.6 °F /  2.0 °C 35.6 °F /  2.0 °C 30.4in /  1030.0hPa Calm     98% 0in /  0.0mm
09:58 35.8 °F /  2.1 °C 35.6 °F /  2.0 °C 30.4in /  1030.0hPa Calm   1.6mph /  2.6km/h 98% 0in /  0.0mm
10:03 36.1 °F /  2.3 °C 37.4 °F /  3.0 °C 30.4in /  1029.0hPa Calm   1.6mph /  2.6km/h 98% 0in /  0.0mm
10:08 36.7 °F /  2.6 °C 37.4 °F /  3.0 °C 30.4in /  1029.0hPa Calm     98% 0in /  0.0mm
10:13 37 °F /  2.8 °C 37.4 °F /  3.0 °C 30.4in /  1029.0hPa Calm   4.3mph /  6.9km/h 98% 0in /  0.0mm
10:18 37 °F /  2.8 °C 37.4 °F /  3.0 °C 30.4in /  1029.0hPa Calm   4.3mph /  6.9km/h 98% 0in /  0.0mm
10:23 37.6 °F /  3.1 °C 37.4 °F /  3.0 °C 30.4in /  1029.0hPa Calm   0.9mph /  1.4km/h 98% 0in /  0.0mm
10:28 38.1 °F /  3.4 °C 37.4 °F /  3.0 °C 30.4in /  1029.0hPa Calm     98% 0in /  0.0mm
10:33 38.5 °F /  3.6 °C 39.2 °F /  4.0 °C 30.4in /  1029.0hPa Calm     98% 0in /  0.0mm
10:38 38.8 °F /  3.8 °C 39.2 °F /  4.0 °C 30.4in /  1029.0hPa Calm     98% 0in /  0.0mm
10:44 39.2 °F /  4.0 °C 39.2 °F /  4.0 °C 30.4in /  1029.0hPa Calm     98% 0in /  0.0mm
10:49 39.4 °F /  4.1 °C 39.2 °F /  4.0 °C 30.4in /  1029.0hPa Calm   2.7mph /  4.3km/h 98% 0.01in /  0.3mm
10:54 39.7 °F /  4.3 °C 39.2 °F /  4.0 °C 30.4in /  1029.0hPa Calm   2.7mph /  4.3km/h 98% 0.01in /  0.3mm
10:59 40.5 °F /  4.7 °C 41 °F /  5.0 °C 30.4in /  1029.0hPa Calm     98% 0.01in /  0.3mm
11:04 40.8 °F /  4.9 °C 41 °F /  5.0 °C 30.4in /  1029.0hPa Calm     98% 0.01in /  0.3mm
11:09 41.5 °F /  5.3 °C 42.8 °F /  6.0 °C 30.4in /  1029.0hPa Calm     98% 0.01in /  0.3mm
11:14 41.7 °F /  5.4 °C 42.8 °F /  6.0 °C 30.4in /  1029.0hPa Calm   1.1mph /  1.8km/h 98% 0.01in /  0.3mm
11:19 42.4 °F /  5.8 °C 42.8 °F /  6.0 °C 30.4in /  1029.0hPa Calm   1.1mph /  1.8km/h 98% 0.01in /  0.3mm
11:24 43 °F /  6.1 °C 42.8 °F /  6.0 °C 30.4in /  1029.0hPa Calm   1.1mph /  1.8km/h 98% 0.01in /  0.3mm
11:29 43.7 °F /  6.5 °C 44.6 °F /  7.0 °C 30.4in /  1029.0hPa Calm   1.1mph /  1.8km/h 98% 0.01in /  0.3mm
11:34 44.6 °F /  7.0 °C 44.6 °F /  7.0 °C 30.4in /  1029.0hPa Calm     98% 0.01in /  0.3mm
11:39 45 °F /  7.2 °C 44.6 °F /  7.0 °C 30.4in /  1029.0hPa Calm     98% 0.01in /  0.3mm
11:44 45.3 °F /  7.4 °C 44.6 °F /  7.0 °C 30.4in /  1029.0hPa Calm     98% 0.01in /  0.3mm
11:49 45.7 °F /  7.6 °C 46.4 °F /  8.0 °C 30.4in /  1029.0hPa Calm   0.9mph /  1.4km/h 98% 0in /  0.0mm
11:54 46.6 °F /  8.1 °C 46.4 °F /  8.0 °C 30.4in /  1029.0hPa Calm   0.9mph /  1.4km/h 98% 0in /  0.0mm
11:59 46.9 °F /  8.3 °C 48.2 °F /  9.0 °C 30.4in /  1029.0hPa Calm     98% 0in /  0.0mm
12:04 47.3 °F /  8.5 °C 48.2 °F /  9.0 °C 30.4in /  1029.0hPa Calm     98% 0in /  0.0mm
12:09 47.7 °F /  8.7 °C 48.2 °F /  9.0 °C 30.4in /  1029.0hPa Calm   0.9mph /  1.4km/h 98% 0in /  0.0mm
12:10 47.7 °F /  8.7 °C 48.2 °F /  9.0 °C 30.4in /  1029.0hPa Calm   0.9mph /  1.4km/h 98% 0in /  0.0mm
12:15 48.2 °F /  9.0 °C 48.2 °F /  9.0 °C 30.4in /  1029.0hPa Calm   0.9mph /  1.4km/h 98% 0in /  0.0mm
12:20 48.6 °F /  9.2 °C 48.2 °F /  9.0 °C 30.4in /  1029.0hPa Calm     98% 0in /  0.0mm
12:26 48.9 °F /  9.4 °C 48.2 °F /  9.0 °C 30.4in /  1029.0hPa Calm     98% 0in /  0.0mm
12:31 49.3 °F /  9.6 °C 50 °F /  10.0 °C 30.4in /  1029.0hPa Calm   0.9mph /  1.4km/h 98% 0in /  0.0mm
12:36 49.6 °F /  9.8 °C 50 °F /  10.0 °C 30.4in /  1029.0hPa SW 2.5mph /  4.0km/h 4.9mph /  7.9km/h 98% 0in /  0.0mm
12:41 49.8 °F /  9.9 °C 50 °F /  10.0 °C 30.4in /  1029.0hPa Calm   4.9mph /  7.9km/h 98% 0in /  0.0mm
12:46 50.2 °F /  10.1 °C 50 °F /  10.0 °C 30.4in /  1029.0hPa Calm   4.3mph /  6.9km/h 98% 0in /  0.0mm
12:51 50.5 °F /  10.3 °C 50 °F /  10.0 °C 30.4in /  1029.0hPa Calm   4.5mph /  7.2km/h 97% 0in /  0.0mm
12:56 50.7 °F /  10.4 °C 50 °F /  10.0 °C 30.4in /  1029.0hPa Calm   4.5mph /  7.2km/h 96% 0in /  0.0mm
13:01 51.1 °F /  10.6 °C 50 °F /  10.0 °C 30.4in /  1028.0hPa Calm   1.3mph /  2.1km/h 95% 0in /  0.0mm
13:06 51.3 °F /  10.7 °C 50 °F /  10.0 °C 30.4in /  1028.0hPa SSW 2.9mph /  4.7km/h 4mph /  6.4km/h 94% 0in /  0.0mm
13:11 51.6 °F /  10.9 °C 50 °F /  10.0 °C 30.4in /  1028.0hPa SSW 3.1mph /  5.0km/h 4mph /  6.4km/h 93% 0in /  0.0mm
13:16 51.6 °F /  10.9 °C 50 °F /  10.0 °C 30.4in /  1028.0hPa SSE 5.8mph /  9.3km/h 6.9mph /  11.1km/h 92% 0in /  0.0mm
13:21 51.4 °F /  10.8 °C 48.2 °F /  9.0 °C 30.4in /  1028.0hPa Calm   6.9mph /  11.1km/h 89% 0in /  0.0mm
13:26 51.4 °F /  10.8 °C 48.2 °F /  9.0 °C 30.4in /  1028.0hPa Calm   6mph /  9.7km/h 87% 0in /  0.0mm
13:31 51.6 °F /  10.9 °C 48.2 °F /  9.0 °C 30.3in /  1027.0hPa SSW 0.9mph /  1.4km/h 6mph /  9.7km/h 85% 0in /  0.0mm
13:36 51.4 °F /  10.8 °C 48.2 °F /  9.0 °C 30.3in /  1027.0hPa Calm   4.9mph /  7.9km/h 85% 0in /  0.0mm
13:41 50.9 °F /  10.5 °C 46.4 °F /  8.0 °C 30.3in /  1027.0hPa Calm   2.5mph /  4.0km/h 84% 0in /  0.0mm
13:46 51.1 °F /  10.6 °C 46.4 °F /  8.0 °C 30.3in /  1027.0hPa Calm   2.9mph /  4.7km/h 84% 0in /  0.0mm
13:51 51.6 °F /  10.9 °C 48.2 °F /  9.0 °C 30.3in /  1027.0hPa Calm   4.3mph /  6.9km/h 84% 0in /  0.0mm
13:56 52 °F /  11.1 °C 48.2 °F /  9.0 °C 30.3in /  1027.0hPa Calm   4.3mph /  6.9km/h 84% 0in /  0.0mm
14:01 52.3 °F /  11.3 °C 48.2 °F /  9.0 °C 30.3in /  1026.0hPa SSW 4mph /  6.4km/h 4.9mph /  7.9km/h 83% 0in /  0.0mm
14:06 51.8 °F /  11.0 °C 46.4 °F /  8.0 °C 30.3in /  1026.0hPa Calm   4.9mph /  7.9km/h 82% 0in /  0.0mm
14:11 51.6 °F /  10.9 °C 46.4 °F /  8.0 °C 30.3in /  1026.0hPa Calm   3.6mph /  5.8km/h 80% 0in /  0.0mm
14:16 51.1 °F /  10.6 °C 44.6 °F /  7.0 °C 30.3in /  1027.0hPa SSW 2mph /  3.2km/h 5.4mph /  8.7km/h 78% 0in /  0.0mm
14:21 50.9 °F /  10.5 °C 44.6 °F /  7.0 °C 30.3in /  1027.0hPa Calm   5.4mph /  8.7km/h 79% 0in /  0.0mm
14:26 50.7 °F /  10.4 °C 44.6 °F /  7.0 °C 30.3in /  1027.0hPa Calm   3.8mph /  6.1km/h 79% 0in /  0.0mm
14:31 50.4 °F /  10.2 °C 44.6 °F /  7.0 °C 30.3in /  1026.0hPa South 0.9mph /  1.4km/h 5.6mph /  9.0km/h 79% 0in /  0.0mm
14:36 50 °F /  10.0 °C 42.8 °F /  6.0 °C 30.3in /  1026.0hPa Calm   5.6mph /  9.0km/h 78% 0in /  0.0mm
14:41 50 °F /  10.0 °C 42.8 °F /  6.0 °C 30.3in /  1026.0hPa Calm   6.3mph /  10.1km/h 78% 0in /  0.0mm
14:46 49.8 °F /  9.9 °C 42.8 °F /  6.0 °C 30.3in /  1026.0hPa Calm   6.3mph /  10.1km/h 78% 0in /  0.0mm
14:51 49.8 °F /  9.9 °C 42.8 °F /  6.0 °C 30.3in /  1026.0hPa Calm   3.6mph /  5.8km/h 78% 0in /  0.0mm
14:56 49.6 °F /  9.8 °C 42.8 °F /  6.0 °C 30.3in /  1026.0hPa Calm   3.8mph /  6.1km/h 78% 0in /  0.0mm
15:01 49.6 °F /  9.8 °C 42.8 °F /  6.0 °C 30.3in /  1026.0hPa Calm   4.9mph /  7.9km/h 78% 0in /  0.0mm
15:06 49.5 °F /  9.7 °C 42.8 °F /  6.0 °C 30.3in /  1026.0hPa South 2.7mph /  4.3km/h 4.9mph /  7.9km/h 79% 0in /  0.0mm
15:12 49.3 °F /  9.6 °C 42.8 °F /  6.0 °C 30.3in /  1026.0hPa SSE 3.6mph /  5.8km/h 5.8mph /  9.3km/h 78% 0in /  0.0mm
15:17 49.3 °F /  9.6 °C 42.8 °F /  6.0 °C 30.3in /  1026.0hPa SSW 4.3mph /  6.9km/h 5.8mph /  9.3km/h 79% 0in /  0.0mm
15:22 49.3 °F /  9.6 °C 42.8 °F /  6.0 °C 30.3in /  1026.0hPa Calm   5.8mph /  9.3km/h 79% 0in /  0.0mm
15:27 49.1 °F /  9.5 °C 42.8 °F /  6.0 °C 30.3in /  1026.0hPa South 3.6mph /  5.8km/h 5.8mph /  9.3km/h 79% 0in /  0.0mm
15:32 48.7 °F /  9.3 °C 42.8 °F /  6.0 °C 30.3in /  1026.0hPa SSW 3.1mph /  5.0km/h 3.6mph /  5.8km/h 80% 0in /  0.0mm
15:37 48.7 °F /  9.3 °C 42.8 °F /  6.0 °C 30.3in /  1026.0hPa Calm   3.6mph /  5.8km/h 80% 0in /  0.0mm
15:42 48.9 °F /  9.4 °C 42.8 °F /  6.0 °C 30.3in /  1026.0hPa SSE 4.7mph /  7.6km/h 4.7mph /  7.6km/h 81% 0in /  0.0mm
15:47 50.5 °F /  10.3 °C 46.4 °F /  8.0 °C 30.2in /  1023.9hPa Calm   6mph /  9.7km/h 82% 0in /  0.0mm
15:52 50.5 °F /  10.3 °C 44.6 °F /  7.0 °C 30.2in /  1023.9hPa Calm   6mph /  9.7km/h 81% 0in /  0.0mm
15:57 50.4 °F /  10.2 °C 44.6 °F /  7.0 °C 30.2in /  1023.9hPa SSE 0.9mph /  1.4km/h 5.8mph /  9.3km/h 80% 0in /  0.0mm
16:02 50.4 °F /  10.2 °C 44.6 °F /  7.0 °C 30.3in /  1024.9hPa Calm   3.4mph /  5.5km/h 80% 0in /  0.0mm
16:07 50.2 °F /  10.1 °C 44.6 °F /  7.0 °C 30.3in /  1024.9hPa Calm   2.5mph /  4.0km/h 79% 0in /  0.0mm
16:12 49.8 °F /  9.9 °C 44.6 °F /  7.0 °C 30.3in /  1024.9hPa Calm     80% 0in /  0.0mm
16:17 49.6 °F /  9.8 °C 44.6 °F /  7.0 °C 30.3in /  1024.9hPa Calm     80% 0in /  0.0mm
16:22 49.5 °F /  9.7 °C 44.6 °F /  7.0 °C 30.3in /  1024.9hPa Calm     81% 0in /  0.0mm
16:27 49.3 °F /  9.6 °C 44.6 °F /  7.0 °C 30.3in /  1024.9hPa Calm   1.3mph /  2.1km/h 81% 0in /  0.0mm
16:32 48.9 °F /  9.4 °C 42.8 °F /  6.0 °C 30.2in /  1023.9hPa Calm   1.6mph /  2.6km/h 81% 0in /  0.0mm
16:37 48.9 °F /  9.4 °C 42.8 °F /  6.0 °C 30.2in /  1023.9hPa Calm   1.6mph /  2.6km/h 81% 0in /  0.0mm
16:42 48.7 °F /  9.3 °C 44.6 °F /  7.0 °C 30.2in /  1023.9hPa Calm     82% 0in /  0.0mm
16:47 48.7 °F /  9.3 °C 44.6 °F /  7.0 °C 30.3in /  1024.9hPa Calm     82% 0in /  0.0mm
16:52 48.6 °F /  9.2 °C 44.6 °F /  7.0 °C 30.3in /  1024.9hPa Calm     83% 0in /  0.0mm
16:57 48.6 °F /  9.2 °C 44.6 °F /  7.0 °C 30.3in /  1024.9hPa Calm     83% 0in /  0.0mm
17:02 48.4 °F /  9.1 °C 42.8 °F /  6.0 °C 30.3in /  1024.9hPa Calm   1.3mph /  2.1km/h 83% 0in /  0.0mm
17:07 48.2 °F /  9.0 °C 42.8 °F /  6.0 °C 30.3in /  1024.9hPa Calm   1.3mph /  2.1km/h 83% 0in /  0.0mm
17:12 48.2 °F /  9.0 °C 44.6 °F /  7.0 °C 30.3in /  1024.9hPa Calm   0.9mph /  1.4km/h 84% 0in /  0.0mm
17:17 48 °F /  8.9 °C 44.6 °F /  7.0 °C 30.2in /  1023.9hPa Calm   2.2mph /  3.5km/h 84% 0in /  0.0mm
17:22 47.8 °F /  8.8 °C 44.6 °F /  7.0 °C 30.2in /  1023.9hPa Calm   2.2mph /  3.5km/h 84% 0in /  0.0mm
17:27 47.7 °F /  8.7 °C 44.6 °F /  7.0 °C 30.2in /  1023.9hPa Calm     85% 0in /  0.0mm
17:32 47.5 °F /  8.6 °C 44.6 °F /  7.0 °C 30.3in /  1024.9hPa Calm     85% 0in /  0.0mm
17:37 47.5 °F /  8.6 °C 44.6 °F /  7.0 °C 30.3in /  1024.9hPa Calm     85% 0in /  0.0mm
17:42 47.3 °F /  8.5 °C 44.6 °F /  7.0 °C 30.3in /  1024.9hPa Calm     85% 0in /  0.0mm
17:47 47.3 °F /  8.5 °C 44.6 °F /  7.0 °C 30.2in /  1023.9hPa Calm     86% 0in /  0.0mm
17:53 47.1 °F /  8.4 °C 42.8 °F /  6.0 °C 30.2in /  1023.9hPa Calm     86% 0in /  0.0mm
17:58 46.9 °F /  8.3 °C 42.8 °F /  6.0 °C 30.2in /  1023.9hPa Calm     86% 0in /  0.0mm
18:03 46.9 °F /  8.3 °C 42.8 °F /  6.0 °C 30.2in /  1022.9hPa Calm   0.9mph /  1.4km/h 86% 0in /  0.0mm
18:08 46.9 °F /  8.3 °C 44.6 °F /  7.0 °C 30.2in /  1022.9hPa Calm   0.9mph /  1.4km/h 87% 0in /  0.0mm
18:13 46.9 °F /  8.3 °C 44.6 °F /  7.0 °C 30.2in /  1022.9hPa Calm   3.8mph /  6.1km/h 87% 0in /  0.0mm
18:18 46.9 °F /  8.3 °C 44.6 °F /  7.0 °C 30.2in /  1022.9hPa Calm   4.3mph /  6.9km/h 87% 0in /  0.0mm
18:23 46.9 °F /  8.3 °C 44.6 °F /  7.0 °C 30.2in /  1022.9hPa Calm   4.3mph /  6.9km/h 88% 0in /  0.0mm
18:28 46.9 °F /  8.3 °C 44.6 °F /  7.0 °C 30.2in /  1022.9hPa Calm   3.1mph /  5.0km/h 88% 0in /  0.0mm
18:33 46.9 °F /  8.3 °C 44.6 °F /  7.0 °C 30.2in /  1022.9hPa Calm   4.3mph /  6.9km/h 88% 0in /  0.0mm
18:38 46.9 °F /  8.3 °C 44.6 °F /  7.0 °C 30.2in /  1022.9hPa Calm   4.3mph /  6.9km/h 89% 0in /  0.0mm
18:43 46.8 °F /  8.2 °C 44.6 °F /  7.0 °C 30.2in /  1022.9hPa South 1.3mph /  2.1km/h 2.9mph /  4.7km/h 89% 0in /  0.0mm
18:48 46.6 °F /  8.1 °C 44.6 °F /  7.0 °C 30.2in /  1022.9hPa Calm   2.9mph /  4.7km/h 89% 0in /  0.0mm
18:53 46.2 °F /  7.9 °C 42.8 °F /  6.0 °C 30.2in /  1022.9hPa Calm   2.5mph /  4.0km/h 90% 0in /  0.0mm
18:58 45.9 °F /  7.7 °C 42.8 °F /  6.0 °C 30.2in /  1022.9hPa Calm   4.3mph /  6.9km/h 90% 0in /  0.0mm
19:03 45.5 °F /  7.5 °C 42.8 °F /  6.0 °C 30.2in /  1021.9hPa Calm   4.3mph /  6.9km/h 91% 0in /  0.0mm
19:08 45.5 °F /  7.5 °C 42.8 °F /  6.0 °C 30.2in /  1021.9hPa South 4.3mph /  6.9km/h 4.7mph /  7.6km/h 91% 0in /  0.0mm
19:13 45.3 °F /  7.4 °C 42.8 °F /  6.0 °C 30.2in /  1021.9hPa Calm   4.7mph /  7.6km/h 92% 0in /  0.0mm
19:18 45.1 °F /  7.3 °C 42.8 °F /  6.0 °C 30.2in /  1021.9hPa Calm   4.3mph /  6.9km/h 92% 0in /  0.0mm
19:23 45 °F /  7.2 °C 42.8 °F /  6.0 °C 30.2in /  1021.9hPa South 3.4mph /  5.5km/h 4.9mph /  7.9km/h 93% 0in /  0.0mm
19:28 44.8 °F /  7.1 °C 42.8 °F /  6.0 °C 30.2in /  1021.9hPa Calm   4.9mph /  7.9km/h 93% 0in /  0.0mm
19:33 44.8 °F /  7.1 °C 42.8 °F /  6.0 °C 30.2in /  1021.9hPa Calm   4.7mph /  7.6km/h 94% 0in /  0.0mm
19:38 44.8 °F /  7.1 °C 42.8 °F /  6.0 °C 30.2in /  1021.9hPa Calm   4.7mph /  7.6km/h 94% 0in /  0.0mm
19:44 44.6 °F /  7.0 °C 42.8 °F /  6.0 °C 30.2in /  1021.9hPa Calm   4.5mph /  7.2km/h 95% 0in /  0.0mm
19:49 44.4 °F /  6.9 °C 42.8 °F /  6.0 °C 30.2in /  1021.9hPa South 3.1mph /  5.0km/h 3.8mph /  6.1km/h 95% 0in /  0.0mm
19:54 44.4 °F /  6.9 °C 44.6 °F /  7.0 °C 30.2in /  1021.9hPa Calm   3.8mph /  6.1km/h 96% 0in /  0.0mm
19:59 44.6 °F /  7.0 °C 44.6 °F /  7.0 °C 30.2in /  1021.9hPa SW 3.1mph /  5.0km/h 4.9mph /  7.9km/h 96% 0in /  0.0mm
20:04 44.8 °F /  7.1 °C 44.6 °F /  7.0 °C 30.2in /  1021.9hPa SSW 3.1mph /  5.0km/h 4.9mph /  7.9km/h 96% 0in /  0.0mm
20:09 45 °F /  7.2 °C 44.6 °F /  7.0 °C 30.2in /  1021.9hPa SSW 2mph /  3.2km/h 5.4mph /  8.7km/h 97% 0in /  0.0mm
20:14 45.1 °F /  7.3 °C 44.6 °F /  7.0 °C 30.2in /  1021.9hPa Calm   6mph /  9.7km/h 97% 0in /  0.0mm
20:19 45.3 °F /  7.4 °C 44.6 °F /  7.0 °C 30.2in /  1021.9hPa Calm   6mph /  9.7km/h 98% 0in /  0.0mm
20:24 45.5 °F /  7.5 °C 46.4 °F /  8.0 °C 30.2in /  1021.9hPa SSW 4mph /  6.4km/h 4.9mph /  7.9km/h 98% 0in /  0.0mm
20:29 45.7 °F /  7.6 °C 46.4 °F /  8.0 °C 30.2in /  1021.9hPa WSW 4.3mph /  6.9km/h 5.4mph /  8.7km/h 98% 0in /  0.0mm
20:34 45.9 °F /  7.7 °C 46.4 °F /  8.0 °C 30.2in /  1021.9hPa SSW 3.6mph /  5.8km/h 5.4mph /  8.7km/h 98% 0in /  0.0mm
20:39 46 °F /  7.8 °C 46.4 °F /  8.0 °C 30.2in /  1021.9hPa SW 3.8mph /  6.1km/h 5.8mph /  9.3km/h 98% 0in /  0.0mm
20:44 46 °F /  7.8 °C 46.4 °F /  8.0 °C 30.2in /  1020.9hPa SW 3.6mph /  5.8km/h 5.8mph /  9.3km/h 98% 0in /  0.0mm
20:49 46.2 °F /  7.9 °C 46.4 °F /  8.0 °C 30.2in /  1020.9hPa SSW 2.7mph /  4.3km/h 5.6mph /  9.0km/h 98% 0in /  0.0mm
20:54 46.2 °F /  7.9 °C 46.4 °F /  8.0 °C 30.2in /  1020.9hPa SW 4.9mph /  7.9km/h 6.5mph /  10.5km/h 98% 0in /  0.0mm
20:59 46.4 °F /  8.0 °C 46.4 °F /  8.0 °C 30.2in /  1020.9hPa SSW 5.4mph /  8.7km/h 6.5mph /  10.5km/h 98% 0in /  0.0mm
21:04 46.6 °F /  8.1 °C 46.4 °F /  8.0 °C 30.2in /  1020.9hPa SW 5.6mph /  9.0km/h 7.8mph /  12.6km/h 98% 0in /  0.0mm
21:09 46.6 °F /  8.1 °C 46.4 °F /  8.0 °C 30.2in /  1020.9hPa SW 4.3mph /  6.9km/h 7.8mph /  12.6km/h 98% 0in /  0.0mm
21:14 46.8 °F /  8.2 °C 46.4 °F /  8.0 °C 30.2in /  1020.9hPa WSW 5.6mph /  9.0km/h 7.2mph /  11.6km/h 98% 0in /  0.0mm
21:19 46.8 °F /  8.2 °C 46.4 °F /  8.0 °C 30.2in /  1020.9hPa WSW 5.8mph /  9.3km/h 8.1mph /  13.0km/h 98% 0in /  0.0mm
21:24 46.9 °F /  8.3 °C 48.2 °F /  9.0 °C 30.2in /  1020.9hPa SSW 5.4mph /  8.7km/h 8.1mph /  13.0km/h 98% 0in /  0.0mm
21:29 46.9 °F /  8.3 °C 48.2 °F /  9.0 °C 30.2in /  1020.9hPa SW 3.8mph /  6.1km/h 8.1mph /  13.0km/h 98% 0in /  0.0mm
21:34 46.9 °F /  8.3 °C 48.2 °F /  9.0 °C 30.2in /  1020.9hPa SSW 6.3mph /  10.1km/h 8.1mph /  13.0km/h 98% 0in /  0.0mm
21:39 46.9 °F /  8.3 °C 48.2 °F /  9.0 °C 30.2in /  1020.9hPa Calm   7.8mph /  12.6km/h 98% 0in /  0.0mm
21:44 46.9 °F /  8.3 °C 48.2 °F /  9.0 °C 30.2in /  1020.9hPa SW 4.9mph /  7.9km/h 7.4mph /  11.9km/h 98% 0in /  0.0mm
21:49 46.9 °F /  8.3 °C 48.2 °F /  9.0 °C 30.2in /  1020.9hPa SW 4.9mph /  7.9km/h 7.6mph /  12.2km/h 98% 0in /  0.0mm
21:54 46.9 °F /  8.3 °C 48.2 °F /  9.0 °C 30.2in /  1020.9hPa Calm   7.6mph /  12.2km/h 98% 0in /  0.0mm
21:59 46.9 °F /  8.3 °C 48.2 °F /  9.0 °C 30.2in /  1020.9hPa SSW 4.9mph /  7.9km/h 5.8mph /  9.3km/h 98% 0in /  0.0mm
22:04 46.9 °F /  8.3 °C 48.2 °F /  9.0 °C 30.2in /  1020.9hPa Calm   5.6mph /  9.0km/h 98% 0in /  0.0mm
22:09 46.9 °F /  8.3 °C 48.2 °F /  9.0 °C 30.2in /  1020.9hPa SW 4.3mph /  6.9km/h 5.4mph /  8.7km/h 98% 0in /  0.0mm
22:15 46.9 °F /  8.3 °C 48.2 °F /  9.0 °C 30.1in /  1018.8hPa SSW 6.3mph /  10.1km/h 6.7mph /  10.8km/h 98% 0in /  0.0mm
22:20 46.9 °F /  8.3 °C 48.2 °F /  9.0 °C 30.1in /  1018.8hPa SSW 5.4mph /  8.7km/h 7.4mph /  11.9km/h 98% 0in /  0.0mm
22:25 46.9 °F /  8.3 °C 48.2 °F /  9.0 °C 30.1in /  1018.8hPa SSW 5.4mph /  8.7km/h 7.4mph /  11.9km/h 98% 0in /  0.0mm
22:30 46.9 °F /  8.3 °C 48.2 °F /  9.0 °C 30.1in /  1018.8hPa SW 5.6mph /  9.0km/h 6.9mph /  11.1km/h 98% 0in /  0.0mm
22:35 46.9 °F /  8.3 °C 48.2 °F /  9.0 °C 30.1in /  1018.8hPa SSW 5.6mph /  9.0km/h 7.6mph /  12.2km/h 98% 0in /  0.0mm
22:40 47.1 °F /  8.4 °C 48.2 °F /  9.0 °C 30.1in /  1018.8hPa SSW 4mph /  6.4km/h 7.6mph /  12.2km/h 98% 0in /  0.0mm
22:45 47.1 °F /  8.4 °C 48.2 °F /  9.0 °C 30.1in /  1018.2hPa SW 5.6mph /  9.0km/h 7.6mph /  12.2km/h 98% 0in /  0.0mm
22:50 47.1 °F /  8.4 °C 48.2 °F /  9.0 °C 30.1in /  1018.2hPa South 1.3mph /  2.1km/h 7.6mph /  12.2km/h 98% 0in /  0.0mm
22:55 47.1 °F /  8.4 °C 48.2 °F /  9.0 °C 30.1in /  1018.2hPa Calm   6mph /  9.7km/h 98% 0in /  0.0mm
23:00 47.1 °F /  8.4 °C 48.2 °F /  9.0 °C 30.1in /  1018.8hPa SSW 4.3mph /  6.9km/h 6.3mph /  10.1km/h 98% 0in /  0.0mm
23:05 47.1 °F /  8.4 °C 48.2 °F /  9.0 °C 30.1in /  1018.8hPa Calm   8.1mph /  13.0km/h 98% 0in /  0.0mm
23:10 47.3 °F /  8.5 °C 48.2 °F /  9.0 °C 30.1in /  1018.8hPa SSW 4mph /  6.4km/h 8.1mph /  13.0km/h 98% 0in /  0.0mm
23:15 47.3 °F /  8.5 °C 48.2 °F /  9.0 °C 30.1in /  1018.8hPa South 6mph /  9.7km/h 8.1mph /  13.0km/h 98% 0in /  0.0mm
23:20 47.3 °F /  8.5 °C 48.2 °F /  9.0 °C 30.1in /  1018.8hPa SW 3.8mph /  6.1km/h 8.1mph /  13.0km/h 98% 0in /  0.0mm
23:25 47.5 °F /  8.6 °C 48.2 °F /  9.0 °C 30.1in /  1018.8hPa SSW 5.4mph /  8.7km/h 7.8mph /  12.6km/h 98% 0in /  0.0mm
23:30 47.7 °F /  8.7 °C 48.2 °F /  9.0 °C 30.1in /  1018.8hPa SSW 6.3mph /  10.1km/h 6.7mph /  10.8km/h 98% 0in /  0.0mm
23:35 47.8 °F /  8.8 °C 48.2 °F /  9.0 °C 30.1in /  1018.8hPa SSW 6mph /  9.7km/h 6.3mph /  10.1km/h 98% 0in /  0.0mm
23:40 47.8 °F /  8.8 °C 48.2 °F /  9.0 °C 30.1in /  1018.8hPa SW 6.7mph /  10.8km/h 8.7mph /  14.0km/h 98% 0in /  0.0mm
23:45 48.2 °F /  9.0 °C 48.2 °F /  9.0 °C 30.1in /  1018.2hPa SW 6.3mph /  10.1km/h 9.2mph /  14.8km/h 98% 0in /  0.0mm
23:50 48.4 °F /  9.1 °C 48.2 °F /  9.0 °C 30.1in /  1018.2hPa SSW 7.2mph /  11.6km/h 9.2mph /  14.8km/h 98% 0in /  0.0mm
23:55 48.6 °F /  9.2 °C 48.2 °F /  9.0 °C 30.1in /  1018.2hPa SW 7.8mph /  12.6km/h 9.4mph /  15.1km/h 98% 0in /  0.0mm
Données Historique de Météo Turbie

Mise a jour : 20/05/2018 16:14:12
Généré par Cumulus 1.9.4 (1099)